Clinton, Iowa
Current Conditions -  °F | °C
As of 4:55 PM on Monday 22 Dec 2014 (Local Time) from KCWI Reporting Station
Overcast Overcast  
Wind Chill: 31°   Ceiling: 300
Heat Index: 37°   Visibility: 2mi
Dew Point: 34°   Wind: 9mph
Humidity: 87%   Direction: 110°ESE
Pressure: 29.6"   Gusts: NA
Location:  41.84°N, 90.19°W
Report Text: KCWI 222255Z AUTO 11008KT 2SM OVC003 03/01 A2960 RMK AO1
Loading
Personal Weather Stations






























Interactive Weather Map New forecast layout! Learn more

10-Day Weather Forecast

Advertisements
Track Severe Weather on mobile